createdAt,value
2023-05-09T00:00:49.417Z,70.60
2023-05-09T00:03:15.901Z,70.70
2023-05-09T00:05:42.416Z,70.50
2023-05-09T00:08:08.978Z,70.50
2023-05-09T00:10:35.889Z,70.30
2023-05-09T00:13:02.424Z,70.40
2023-05-09T00:15:28.989Z,70.40
2023-05-09T00:17:55.535Z,70.60
2023-05-09T00:20:22.093Z,70.50
2023-05-09T00:22:48.630Z,70.40
2023-05-09T00:25:15.377Z,70.30
2023-05-09T00:27:41.978Z,70.60
2023-05-09T00:30:08.494Z,70.60
2023-05-09T00:32:35.008Z,70.70
2023-05-09T00:35:01.524Z,70.70
2023-05-09T00:37:28.003Z,70.80
2023-05-09T00:39:54.492Z,70.90
2023-05-09T00:42:20.963Z,70.90
2023-05-09T00:44:47.454Z,70.70
2023-05-09T00:47:13.941Z,70.90
2023-05-09T00:49:40.432Z,70.80
2023-05-09T00:52:06.906Z,70.60
2023-05-09T00:54:33.412Z,70.90
2023-05-09T00:56:59.887Z,70.80
2023-05-09T00:59:26.365Z,70.60
2023-05-09T01:01:52.855Z,70.90
2023-05-09T01:04:19.352Z,70.90
2023-05-09T01:06:45.832Z,70.90
2023-05-09T01:09:12.321Z,70.60
2023-05-09T01:11:38.826Z,70.80
2023-05-09T01:14:10.303Z,70.80
2023-05-09T01:16:36.813Z,70.90
2023-05-09T01:19:03.280Z,70.80
2023-05-09T01:21:29.769Z,70.80
2023-05-09T01:23:56.273Z,71.00
2023-05-09T01:26:22.786Z,70.80
2023-05-09T01:28:49.266Z,70.70
2023-05-09T01:31:15.797Z,70.90
2023-05-09T01:33:42.325Z,71.00
2023-05-09T01:36:08.792Z,70.80
2023-05-09T01:38:35.258Z,70.70
2023-05-09T01:41:01.755Z,70.80
2023-05-09T01:43:28.245Z,70.70
2023-05-09T01:45:54.757Z,70.80
2023-05-09T01:48:21.244Z,70.80
2023-05-09T01:50:47.730Z,70.80
2023-05-09T01:53:14.207Z,70.90
2023-05-09T01:55:46.343Z,70.80
2023-05-09T01:58:12.829Z,70.80
2023-05-09T02:00:39.339Z,71.10
2023-05-09T02:03:05.860Z,71.00
2023-05-09T02:05:32.344Z,71.20
2023-05-09T02:07:58.820Z,71.40
2023-05-09T02:10:25.303Z,71.20
2023-05-09T02:12:51.811Z,71.30
2023-05-09T02:15:18.294Z,71.20
2023-05-09T02:17:44.828Z,71.40
2023-05-09T02:20:11.319Z,71.40
2023-05-09T02:22:37.833Z,71.30
2023-05-09T02:25:04.322Z,71.30
2023-05-09T02:27:30.831Z,71.40
2023-05-09T02:29:57.286Z,71.40
2023-05-09T02:32:23.791Z,71.50
2023-05-09T02:34:50.287Z,71.30
2023-05-09T02:37:16.772Z,71.40
2023-05-09T02:39:43.246Z,71.40
2023-05-09T02:42:09.723Z,71.60
2023-05-09T02:44:36.217Z,71.40
2023-05-09T02:47:02.710Z,71.40
2023-05-09T02:49:32.425Z,71.30
2023-05-09T02:51:59.279Z,71.20
2023-05-09T02:54:28.359Z,71.30
2023-05-09T02:56:55.939Z,71.50
2023-05-09T02:59:22.425Z,71.30
2023-05-09T03:01:48.967Z,71.30
2023-05-09T03:04:15.558Z,71.10
2023-05-09T03:06:42.065Z,71.20
2023-05-09T03:09:08.563Z,71.00
2023-05-09T03:11:35.029Z,71.00
2023-05-09T03:14:01.549Z,71.20
2023-05-09T03:16:28.110Z,71.20
2023-05-09T03:18:54.734Z,71.00
2023-05-09T03:21:21.220Z,71.20
2023-05-09T03:23:47.702Z,71.20
2023-05-09T03:26:14.172Z,71.20
2023-05-09T03:28:40.645Z,71.00
2023-05-09T03:31:07.142Z,71.20
2023-05-09T03:33:33.608Z,71.00
2023-05-09T03:36:00.103Z,71.00
2023-05-09T03:38:28.456Z,71.10
2023-05-09T03:40:54.948Z,71.10
2023-05-09T03:43:21.594Z,71.00
2023-05-09T03:45:48.066Z,71.00
2023-05-09T03:48:16.441Z,71.90
2023-05-09T03:50:42.955Z,71.20
2023-05-09T03:53:09.435Z,71.30
2023-05-09T03:55:35.959Z,71.10
2023-05-09T03:58:02.455Z,71.00
2023-05-09T04:00:28.952Z,71.20
2023-05-09T04:02:58.498Z,71.20
2023-05-09T04:05:25.039Z,71.20
2023-05-09T04:07:51.526Z,71.10
2023-05-09T04:10:18.023Z,71.20
2023-05-09T04:12:44.559Z,71.20
2023-05-09T04:15:16.622Z,71.10
2023-05-09T04:17:43.270Z,71.20
2023-05-09T04:20:09.822Z,71.10
2023-05-09T04:22:36.308Z,71.10
2023-05-09T04:25:02.798Z,71.20
2023-05-09T04:27:29.293Z,70.90
2023-05-09T04:29:58.478Z,70.90
2023-05-09T04:32:24.987Z,71.00
2023-05-09T04:34:51.478Z,70.90
2023-05-09T04:37:17.953Z,70.90
2023-05-09T04:39:44.582Z,70.90
2023-05-09T04:42:11.061Z,71.00
2023-05-09T04:44:37.537Z,71.00
2023-05-09T04:47:04.015Z,70.70
2023-05-09T04:49:30.515Z,70.90
2023-05-09T04:51:56.990Z,70.80
2023-05-09T04:54:23.474Z,70.80
2023-05-09T04:56:50.765Z,70.70
2023-05-09T04:59:17.313Z,70.80
2023-05-09T05:01:43.983Z,70.70
2023-05-09T05:04:10.596Z,70.80
2023-05-09T05:06:37.087Z,70.90
2023-05-09T05:09:03.558Z,70.80
2023-05-09T05:11:30.052Z,70.80
2023-05-09T05:13:56.536Z,70.70
2023-05-09T05:16:23.077Z,70.90
2023-05-09T05:18:49.596Z,70.80
2023-05-09T05:21:16.564Z,70.80
2023-05-09T05:23:46.546Z,70.80
2023-05-09T05:26:13.010Z,70.80
2023-05-09T05:28:39.501Z,70.80
2023-05-09T05:31:06.009Z,70.90
2023-05-09T05:33:32.545Z,70.90
2023-05-09T05:35:59.036Z,70.90
2023-05-09T05:38:25.495Z,70.90
2023-05-09T05:40:51.980Z,71.00
2023-05-09T05:43:18.457Z,71.10
2023-05-09T05:45:44.968Z,71.10
2023-05-09T05:48:11.542Z,71.00
2023-05-09T05:50:38.064Z,71.20
2023-05-09T05:53:04.538Z,71.20
2023-05-09T05:55:31.019Z,71.10
2023-05-09T05:57:57.529Z,71.10
2023-05-09T06:00:24.023Z,71.10
2023-05-09T06:02:52.689Z,71.10
2023-05-09T06:05:19.272Z,71.20
2023-05-09T06:07:45.757Z,71.20
2023-05-09T06:10:12.263Z,71.30
2023-05-09T06:12:40.585Z,71.20
2023-05-09T06:15:07.118Z,71.30
2023-05-09T06:17:33.638Z,71.20
2023-05-09T06:20:00.175Z,71.20
2023-05-09T06:22:26.646Z,71.30
2023-05-09T06:24:53.118Z,71.20
2023-05-09T06:27:19.593Z,71.20
2023-05-09T06:29:46.067Z,71.20
2023-05-09T06:32:12.576Z,71.20
2023-05-09T06:34:39.074Z,71.20
2023-05-09T06:37:05.571Z,71.30
2023-05-09T06:39:32.104Z,71.30
2023-05-09T06:42:04.596Z,71.20
2023-05-09T06:44:31.108Z,71.20
2023-05-09T06:46:57.602Z,71.30
2023-05-09T06:49:24.128Z,71.20
2023-05-09T06:51:50.596Z,71.10
2023-05-09T06:54:17.092Z,71.10
2023-05-09T06:56:43.596Z,71.10
2023-05-09T06:59:10.221Z,71.10
2023-05-09T07:01:36.770Z,71.10
2023-05-09T07:04:03.266Z,71.10
2023-05-09T07:06:29.740Z,71.00
2023-05-09T07:08:56.233Z,71.20
2023-05-09T07:11:22.707Z,71.10
2023-05-09T07:13:49.184Z,71.20
2023-05-09T07:16:15.685Z,71.10
2023-05-09T07:18:42.221Z,71.20
2023-05-09T07:21:08.730Z,71.10
2023-05-09T07:23:35.219Z,71.10
2023-05-09T07:26:01.706Z,71.10
2023-05-09T07:28:28.193Z,71.10
2023-05-09T07:30:54.656Z,71.10
2023-05-09T07:33:21.129Z,71.10
2023-05-09T07:35:47.609Z,71.10
2023-05-09T07:38:14.077Z,71.10
2023-05-09T07:40:40.553Z,71.00
2023-05-09T07:43:07.041Z,71.10
2023-05-09T07:45:33.543Z,71.00
2023-05-09T07:48:00.195Z,71.00
2023-05-09T07:50:26.795Z,70.80
2023-05-09T07:52:53.292Z,70.80
2023-05-09T07:55:19.800Z,70.80
2023-05-09T07:57:46.675Z,70.80
2023-05-09T08:00:13.205Z,70.70
2023-05-09T08:02:39.734Z,70.90
2023-05-09T08:05:06.309Z,70.90
2023-05-09T08:07:32.786Z,71.00
2023-05-09T08:09:59.317Z,71.00
2023-05-09T08:12:25.851Z,71.00
2023-05-09T08:14:52.339Z,71.10
2023-05-09T08:17:18.831Z,70.80
2023-05-09T08:19:45.289Z,71.10
2023-05-09T08:22:11.765Z,71.10
2023-05-09T08:24:38.235Z,71.00
2023-05-09T08:27:10.698Z,71.20
2023-05-09T08:32:27.187Z,70.40
2023-05-09T08:34:53.675Z,70.80
2023-05-09T08:37:20.161Z,71.20
2023-05-09T08:39:46.647Z,71.00
2023-05-09T08:42:13.155Z,70.90
2023-05-09T08:44:39.623Z,70.80
2023-05-09T08:47:06.125Z,71.20
2023-05-09T08:49:32.624Z,71.10
2023-05-09T08:51:59.127Z,71.10
2023-05-09T08:54:25.610Z,71.20
2023-05-09T08:56:52.136Z,71.30
2023-05-09T08:59:18.652Z,71.40
2023-05-09T09:01:45.201Z,71.40
2023-05-09T09:04:11.740Z,71.30
2023-05-09T09:06:38.218Z,71.40
2023-05-09T09:09:04.690Z,71.60
2023-05-09T09:11:31.175Z,71.60
2023-05-09T09:13:57.658Z,71.60
2023-05-09T09:16:24.260Z,72.40
2023-05-09T09:18:50.794Z,71.80
2023-05-09T09:21:22.720Z,71.60
2023-05-09T09:23:49.189Z,71.70
2023-05-09T09:26:15.692Z,71.60
2023-05-09T09:28:42.167Z,71.70
2023-05-09T09:31:08.655Z,71.60
2023-05-09T09:33:35.136Z,71.80
2023-05-09T09:36:01.629Z,71.90
2023-05-09T09:38:28.128Z,72.00
2023-05-09T09:40:54.623Z,72.00
2023-05-09T09:43:21.143Z,72.00
2023-05-09T09:45:47.663Z,71.90
2023-05-09T09:48:14.257Z,72.00
2023-05-09T09:50:40.773Z,71.80
2023-05-09T09:53:07.279Z,71.50
2023-05-09T09:55:33.766Z,71.50
2023-05-09T09:58:00.239Z,71.50
2023-05-09T10:00:26.710Z,71.70
2023-05-09T10:02:53.241Z,71.80
2023-05-09T10:05:19.682Z,71.50
2023-05-09T10:07:46.170Z,71.80
2023-05-09T10:10:12.989Z,71.90
2023-05-09T10:12:40.017Z,71.90
2023-05-09T10:15:06.592Z,71.80
2023-05-09T10:17:33.192Z,72.00
2023-05-09T10:19:59.784Z,72.10
2023-05-09T10:22:26.288Z,72.00
2023-05-09T10:24:52.789Z,72.10
2023-05-09T10:27:19.286Z,72.20
2023-05-09T10:29:45.803Z,72.10
2023-05-09T10:32:12.293Z,72.30
2023-05-09T10:34:38.828Z,72.20
2023-05-09T10:37:05.319Z,72.00
2023-05-09T10:39:31.807Z,72.30
2023-05-09T10:41:58.294Z,72.30
2023-05-09T10:44:24.817Z,72.30
2023-05-09T10:46:51.409Z,72.30
2023-05-09T10:49:17.956Z,72.20
2023-05-09T10:51:44.426Z,72.40
2023-05-09T10:54:10.918Z,72.30
2023-05-09T10:56:37.401Z,72.30
2023-05-09T10:59:03.878Z,72.40
2023-05-09T11:01:30.396Z,72.40
2023-05-09T11:03:57.034Z,72.40
2023-05-09T11:06:23.573Z,72.30
2023-05-09T11:08:50.059Z,72.50
2023-05-09T11:11:16.543Z,72.50
2023-05-09T11:13:43.028Z,72.30
2023-05-09T11:16:09.553Z,72.40
2023-05-09T11:18:36.047Z,72.60
2023-05-09T11:21:02.535Z,72.50
2023-05-09T11:23:29.026Z,72.50
2023-05-09T11:25:55.514Z,72.50
2023-05-09T11:28:21.999Z,72.50
2023-05-09T11:30:48.568Z,72.60
2023-05-09T11:33:15.087Z,72.50
2023-05-09T11:35:41.579Z,73.30
2023-05-09T11:38:08.079Z,72.70
2023-05-09T11:40:34.607Z,72.60
2023-05-09T11:43:01.102Z,72.60
2023-05-09T11:45:27.620Z,72.60
2023-05-09T11:47:54.237Z,72.70
2023-05-09T11:50:20.797Z,72.60
2023-05-09T11:52:47.286Z,72.70
2023-05-09T11:55:14.480Z,72.80
2023-05-09T11:57:41.182Z,72.40
2023-05-09T12:00:07.696Z,72.70
2023-05-09T12:02:34.291Z,72.70
2023-05-09T12:05:00.820Z,72.70
2023-05-09T12:07:27.326Z,72.70
2023-05-09T12:09:58.843Z,72.60
2023-05-09T12:12:25.328Z,72.80
2023-05-09T12:14:51.944Z,72.70
2023-05-09T12:17:18.462Z,72.80
2023-05-09T12:19:44.953Z,72.80
2023-05-09T12:22:11.438Z,72.80
2023-05-09T12:24:37.930Z,72.70
2023-05-09T12:27:04.406Z,72.70
2023-05-09T12:29:30.886Z,72.70
2023-05-09T12:31:57.375Z,72.70
2023-05-09T12:34:23.854Z,72.70
2023-05-09T12:36:50.356Z,72.70
2023-05-09T12:39:16.850Z,72.60
2023-05-09T12:41:53.496Z,72.70
2023-05-09T12:44:24.312Z,72.70
2023-05-09T12:46:50.920Z,72.60
2023-05-09T12:49:17.444Z,72.80
2023-05-09T12:51:43.950Z,72.80
2023-05-09T12:54:10.443Z,72.80
2023-05-09T12:56:36.967Z,72.90
2023-05-09T12:59:03.435Z,72.80
2023-05-09T13:01:30.002Z,72.90
2023-05-09T13:03:56.584Z,72.80
2023-05-09T13:06:23.102Z,73.00
2023-05-09T13:08:49.569Z,72.90
2023-05-09T13:11:17.031Z,72.80
2023-05-09T13:13:43.758Z,72.90
2023-05-09T13:16:11.153Z,72.90
2023-05-09T13:18:39.242Z,72.90
2023-05-09T13:21:05.726Z,72.90
2023-05-09T13:23:34.885Z,73.70
2023-05-09T13:26:01.374Z,72.90
2023-05-09T13:28:27.855Z,72.90
2023-05-09T13:30:54.388Z,72.90
2023-05-09T13:35:50.308Z,73.00
2023-05-09T13:38:16.857Z,73.00
2023-05-09T13:40:43.344Z,73.00
2023-05-09T13:43:09.853Z,73.00
2023-05-09T13:45:36.364Z,73.00
2023-05-09T13:48:03.047Z,73.00
2023-05-09T13:50:29.571Z,73.00
2023-05-09T13:52:56.056Z,73.00
2023-05-09T13:55:22.532Z,73.00
2023-05-09T13:57:49.037Z,73.00
2023-05-09T14:00:15.949Z,73.00
2023-05-09T14:02:42.618Z,73.00
2023-05-09T14:05:09.161Z,73.00
2023-05-09T14:07:35.664Z,73.00
2023-05-09T14:12:31.520Z,73.00
2023-05-09T14:14:57.999Z,73.00
2023-05-09T14:17:24.505Z,73.00
2023-05-09T14:19:51.015Z,73.00
2023-05-09T14:22:17.518Z,73.00
2023-05-09T14:24:44.005Z,73.10
2023-05-09T14:27:10.499Z,73.00
2023-05-09T14:29:38.662Z,73.10
2023-05-09T14:32:06.295Z,73.00
2023-05-09T14:34:32.799Z,73.00
2023-05-09T14:36:59.284Z,73.20
2023-05-09T14:39:25.808Z,73.10
2023-05-09T14:41:52.301Z,73.80
2023-05-09T14:44:18.807Z,73.00
2023-05-09T14:46:45.352Z,73.00
2023-05-09T14:49:11.908Z,73.10
2023-05-09T14:51:38.388Z,73.00
2023-05-09T14:54:04.883Z,73.10
2023-05-09T14:56:31.358Z,73.10
2023-05-09T14:58:57.841Z,73.20
2023-05-09T15:01:24.324Z,73.30
2023-05-09T15:03:50.850Z,73.40
2023-05-09T15:06:17.365Z,73.30
2023-05-09T15:08:43.837Z,73.30
2023-05-09T15:11:10.325Z,73.40
2023-05-09T15:13:36.945Z,73.50
2023-05-09T15:16:03.554Z,73.50
2023-05-09T15:18:30.035Z,73.50
2023-05-09T15:20:56.519Z,73.60
2023-05-09T15:23:23.037Z,73.60
2023-05-09T15:25:49.509Z,73.60
2023-05-09T15:28:16.010Z,73.70
2023-05-09T15:30:47.213Z,73.70
2023-05-09T15:33:13.748Z,73.80
2023-05-09T15:35:40.268Z,73.80
2023-05-09T15:38:06.775Z,74.00
2023-05-09T15:40:33.337Z,73.90
2023-05-09T15:42:59.845Z,74.00
2023-05-09T15:45:26.349Z,74.00
2023-05-09T15:47:52.886Z,74.20
2023-05-09T15:50:19.419Z,74.10
2023-05-09T15:52:45.884Z,74.40
2023-05-09T15:55:17.079Z,74.30
2023-05-09T15:57:43.576Z,74.30
2023-05-09T16:00:10.062Z,74.30
2023-05-09T16:02:41.343Z,74.30
2023-05-09T16:05:07.880Z,74.40
2023-05-09T16:07:35.781Z,74.50
2023-05-09T16:10:02.533Z,74.50
2023-05-09T16:12:29.095Z,74.50
2023-05-09T16:14:55.565Z,74.60
2023-05-09T16:17:22.030Z,74.80
2023-05-09T16:19:48.491Z,74.50
2023-05-09T16:22:14.980Z,74.50
2023-05-09T16:24:47.088Z,74.60
2023-05-09T16:27:13.585Z,74.50
2023-05-09T16:29:40.079Z,74.40
2023-05-09T16:32:06.663Z,74.20
2023-05-09T16:34:33.266Z,74.50
2023-05-09T16:36:59.775Z,74.40
2023-05-09T16:39:26.245Z,74.40
2023-05-09T16:41:52.726Z,74.30
2023-05-09T16:44:19.197Z,74.30
2023-05-09T16:46:45.703Z,74.30
2023-05-09T16:49:12.195Z,74.20
2023-05-09T16:51:38.683Z,74.10
2023-05-09T16:54:05.181Z,74.10
2023-05-09T16:56:31.767Z,74.20
2023-05-09T16:58:58.247Z,74.10
2023-05-09T17:01:24.769Z,74.10
2023-05-09T17:03:51.341Z,74.20
2023-05-09T17:06:17.849Z,74.10
2023-05-09T17:08:44.319Z,74.00
2023-05-09T17:11:10.808Z,74.10
2023-05-09T17:13:37.288Z,74.10
2023-05-09T17:16:03.823Z,74.00
2023-05-09T17:18:37.617Z,74.10
2023-05-09T17:21:04.623Z,74.00
2023-05-09T17:23:31.106Z,73.80
2023-05-09T17:25:59.138Z,73.60
2023-05-09T17:28:25.833Z,73.30
2023-05-09T17:30:52.317Z,73.30
2023-05-09T17:33:18.837Z,73.10
2023-05-09T17:35:45.336Z,73.40
2023-05-09T17:38:11.838Z,71.90
2023-05-09T17:40:38.324Z,72.80
2023-05-09T17:43:04.844Z,72.90
2023-05-09T17:45:31.350Z,71.80
2023-05-09T17:47:57.875Z,72.00
2023-05-09T17:50:24.398Z,71.70
2023-05-09T17:52:50.900Z,71.70
2023-05-09T17:55:17.372Z,71.70
2023-05-09T17:57:47.163Z,71.50
2023-05-09T18:00:13.787Z,71.60
2023-05-09T18:02:40.484Z,71.20
2023-05-09T18:05:07.065Z,71.50
2023-05-09T18:07:33.546Z,71.00
2023-05-09T18:10:00.022Z,71.40
2023-05-09T18:12:26.533Z,71.10
2023-05-09T18:14:53.029Z,71.00
2023-05-09T18:17:19.524Z,70.90
2023-05-09T18:19:45.998Z,70.90
2023-05-09T18:22:12.486Z,71.00
2023-05-09T18:24:39.001Z,70.80
2023-05-09T18:27:05.478Z,70.80
2023-05-09T18:29:31.950Z,71.10
2023-05-09T18:31:58.443Z,70.80
2023-05-09T18:34:24.935Z,70.70
2023-05-09T18:36:51.419Z,70.90
2023-05-09T18:39:17.930Z,70.70
2023-05-09T18:41:44.429Z,71.20
2023-05-09T18:44:10.968Z,71.60
2023-05-09T18:46:37.456Z,72.90
2023-05-09T18:49:03.989Z,72.90
2023-05-09T18:51:30.482Z,73.10
2023-05-09T18:53:59.196Z,73.10
2023-05-09T18:56:25.675Z,73.20
2023-05-09T18:58:52.179Z,72.60
2023-05-09T19:01:21.542Z,71.80
2023-05-09T19:03:48.104Z,72.50
2023-05-09T19:06:14.596Z,71.70
2023-05-09T19:08:41.075Z,72.80
2023-05-09T19:11:07.563Z,73.10
2023-05-09T19:13:34.230Z,73.30
2023-05-09T19:16:00.816Z,72.70
2023-05-09T19:18:27.304Z,72.50
2023-05-09T19:20:53.806Z,72.30
2023-05-09T19:23:20.301Z,72.30
2023-05-09T19:25:46.838Z,72.20
2023-05-09T19:28:13.324Z,72.00
2023-05-09T19:30:39.859Z,71.90
2023-05-09T19:33:06.418Z,71.90
2023-05-09T19:35:32.953Z,71.70
2023-05-09T19:37:59.633Z,71.70
2023-05-09T19:40:26.198Z,71.70
2023-05-09T19:42:52.685Z,72.40
2023-05-09T19:45:19.187Z,71.60
2023-05-09T19:47:45.687Z,71.60
2023-05-09T19:50:17.519Z,71.40
2023-05-09T19:52:44.146Z,71.30
2023-05-09T19:55:10.626Z,71.40
2023-05-09T19:57:37.086Z,71.20
2023-05-09T20:00:03.566Z,71.40
2023-05-09T20:02:30.181Z,71.20
2023-05-09T20:04:59.277Z,71.40
2023-05-09T20:07:25.764Z,71.40
2023-05-09T20:09:52.274Z,71.50
2023-05-09T20:12:18.785Z,71.50
2023-05-09T20:14:45.278Z,71.50
2023-05-09T20:17:11.795Z,71.40
2023-05-09T20:19:38.275Z,71.40
2023-05-09T20:22:04.784Z,71.40
2023-05-09T20:24:31.268Z,71.30
2023-05-09T20:26:57.760Z,71.30
2023-05-09T20:29:24.231Z,71.40
2023-05-09T20:31:50.767Z,71.50
2023-05-09T20:34:17.261Z,71.50
2023-05-09T20:36:43.762Z,71.40
2023-05-09T20:39:11.745Z,71.40
2023-05-09T20:41:38.407Z,71.40
2023-05-09T20:44:04.935Z,71.50
2023-05-09T20:46:31.438Z,71.50
2023-05-09T20:48:57.911Z,71.60
2023-05-09T20:51:24.380Z,71.80
2023-05-09T20:53:51.097Z,71.80
2023-05-09T20:56:17.571Z,71.90
2023-05-09T20:58:44.059Z,71.90
2023-05-09T21:01:10.609Z,71.60
2023-05-09T21:03:37.164Z,71.50
2023-05-09T21:06:03.664Z,71.50
2023-05-09T21:08:30.129Z,71.80
2023-05-09T21:10:56.594Z,72.40
2023-05-09T21:13:23.288Z,71.80
2023-05-09T21:15:50.023Z,71.90
2023-05-09T21:18:16.504Z,71.80
2023-05-09T21:20:42.978Z,71.90
2023-05-09T21:23:09.486Z,71.60
2023-05-09T21:25:36.006Z,71.80
2023-05-09T21:28:02.516Z,71.90
2023-05-09T21:30:29.018Z,72.00
2023-05-09T21:32:55.546Z,72.00
2023-05-09T21:35:22.017Z,72.00
2023-05-09T21:37:48.524Z,72.20
2023-05-09T21:40:15.153Z,72.20
2023-05-09T21:42:41.750Z,72.40
2023-05-09T21:45:08.239Z,72.20
2023-05-09T21:47:34.872Z,72.20
2023-05-09T21:50:01.454Z,72.40
2023-05-09T21:52:27.947Z,72.40
2023-05-09T21:54:54.444Z,72.40
2023-05-09T21:57:20.949Z,72.40
2023-05-09T21:59:47.428Z,72.50
2023-05-09T22:02:13.938Z,72.50
2023-05-09T22:04:40.465Z,72.60
2023-05-09T22:07:06.975Z,72.60
2023-05-09T22:09:33.479Z,72.60
2023-05-09T22:11:59.972Z,72.70
2023-05-09T22:14:26.502Z,72.50
2023-05-09T22:16:53.004Z,72.60
2023-05-09T22:19:19.506Z,72.60
2023-05-09T22:21:45.954Z,72.50
2023-05-09T22:24:12.442Z,72.60
2023-05-09T22:26:38.927Z,72.60
2023-05-09T22:29:05.422Z,72.50
2023-05-09T22:31:31.946Z,72.40
2023-05-09T22:33:58.438Z,72.40
2023-05-09T22:36:24.918Z,72.50
2023-05-09T22:38:51.428Z,72.40
2023-05-09T22:41:17.894Z,73.10
2023-05-09T22:43:44.382Z,72.50
2023-05-09T22:46:10.886Z,72.50
2023-05-09T22:48:37.413Z,72.50
2023-05-09T22:51:05.349Z,72.50
2023-05-09T22:53:31.857Z,72.40
2023-05-09T22:55:58.341Z,72.30
2023-05-09T22:58:24.885Z,72.40
2023-05-09T23:00:51.416Z,72.40
2023-05-09T23:03:18.028Z,72.40
2023-05-09T23:05:44.537Z,72.30
2023-05-09T23:08:11.030Z,72.30
2023-05-09T23:10:37.529Z,72.20
2023-05-09T23:13:04.019Z,72.20
2023-05-09T23:15:30.599Z,71.80
2023-05-09T23:17:57.172Z,72.00
2023-05-09T23:20:29.545Z,72.00
2023-05-09T23:22:56.035Z,72.00
2023-05-09T23:25:22.509Z,71.90
2023-05-09T23:27:49.007Z,72.00
2023-05-09T23:30:15.693Z,72.00
2023-05-09T23:32:47.522Z,72.00
2023-05-09T23:35:14.069Z,72.00
2023-05-09T23:37:40.556Z,72.00
2023-05-09T23:40:07.022Z,72.00
2023-05-09T23:42:33.496Z,71.90
2023-05-09T23:45:00.006Z,72.00
2023-05-09T23:47:26.547Z,72.00
2023-05-09T23:49:53.070Z,72.00
2023-05-09T23:52:19.526Z,72.00
2023-05-09T23:54:46.027Z,72.00
2023-05-09T23:57:12.502Z,71.80
2023-05-09T23:59:38.997Z,72.00
